createdAt,value
2018-05-04T00:01:05.944Z,7.81
2018-05-04T00:07:10.307Z,7.58
2018-05-04T00:13:15.409Z,7.47
2018-05-04T00:19:20.099Z,7.28
2018-05-04T00:25:24.450Z,7.40
2018-05-04T00:31:29.660Z,7.26
2018-05-04T00:37:33.997Z,6.73
2018-05-04T00:43:39.133Z,6.96
2018-05-04T00:49:43.568Z,6.91
2018-05-04T00:55:47.925Z,6.84
2018-05-04T01:01:52.661Z,6.86
2018-05-04T01:07:57.008Z,6.74
2018-05-04T01:14:02.132Z,6.74
2018-05-04T01:20:06.485Z,6.68
2018-05-04T01:26:10.909Z,6.65
2018-05-04T01:32:15.282Z,6.62
2018-05-04T01:38:20.451Z,6.40
2018-05-04T01:44:25.007Z,6.31
2018-05-04T01:50:29.447Z,6.57
2018-05-04T01:56:33.878Z,6.50
2018-05-04T02:02:38.327Z,6.19
2018-05-04T02:08:43.554Z,6.33
2018-05-04T02:14:47.917Z,5.94
2018-05-04T02:20:53.058Z,5.94
2018-05-04T02:26:57.574Z,5.72
2018-05-04T02:33:02.783Z,5.63
2018-05-04T02:39:07.153Z,5.67
2018-05-04T02:45:11.614Z,5.83
2018-05-04T02:51:16.895Z,5.62
2018-05-04T02:57:22.015Z,5.50
2018-05-04T03:03:27.152Z,5.45
2018-05-04T03:09:31.503Z,5.29
2018-05-04T03:15:35.853Z,5.40
2018-05-04T03:21:41.059Z,5.33
2018-05-04T03:27:45.424Z,5.35
2018-05-04T03:33:49.920Z,5.27
2018-05-04T03:39:54.429Z,5.09
2018-05-04T03:45:58.852Z,5.22
2018-05-04T03:52:03.998Z,5.38
2018-05-04T03:58:26.196Z,5.43
2018-05-04T04:04:30.651Z,5.44
2018-05-04T04:10:35.036Z,5.62
2018-05-04T04:16:39.457Z,5.70
2018-05-04T04:22:44.591Z,5.78
2018-05-04T04:28:50.721Z,5.84
2018-05-04T04:34:56.001Z,5.76
2018-05-04T04:41:01.998Z,5.90
2018-05-04T04:47:06.439Z,5.87
2018-05-04T04:53:10.834Z,6.22
2018-05-04T04:59:15.933Z,6.23
2018-05-04T05:05:20.749Z,6.59
2018-05-04T05:11:25.323Z,6.77
2018-05-04T05:17:30.485Z,6.97
2018-05-04T05:23:34.856Z,7.27
2018-05-04T05:29:39.966Z,7.57
2018-05-04T05:35:44.334Z,7.74
2018-05-04T05:41:49.620Z,7.89
2018-05-04T05:47:54.445Z,8.18
2018-05-04T05:53:58.833Z,8.39
2018-05-04T06:00:03.196Z,8.82
2018-05-04T06:06:07.611Z,9.29
2018-05-04T06:12:11.949Z,9.58
2018-05-04T06:18:16.390Z,9.93
2018-05-04T06:24:21.584Z,10.06
2018-05-04T06:30:26.725Z,10.45
2018-05-04T06:36:31.115Z,10.58
2018-05-04T06:42:35.498Z,11.11
2018-05-04T06:48:39.869Z,11.43
2018-05-04T06:54:44.248Z,11.89
2018-05-04T07:00:48.719Z,12.21
2018-05-04T07:06:53.189Z,12.90
2018-05-04T07:12:57.582Z,13.16
2018-05-04T07:19:02.836Z,13.42
2018-05-04T07:25:07.223Z,13.93
2018-05-04T07:31:11.593Z,14.60
2018-05-04T07:37:15.957Z,14.90
2018-05-04T07:43:20.639Z,15.63
2018-05-04T07:49:25.802Z,16.10
2018-05-04T07:55:30.171Z,16.53
2018-05-04T08:01:34.529Z,16.83
2018-05-04T08:07:39.663Z,17.27
2018-05-04T08:13:44.015Z,17.90
2018-05-04T08:19:48.395Z,18.29
2018-05-04T08:25:52.829Z,18.09
2018-05-04T08:31:57.250Z,17.97
2018-05-04T08:38:01.618Z,17.82
2018-05-04T08:44:05.990Z,18.57
2018-05-04T08:50:10.344Z,19.31
2018-05-04T08:56:15.497Z,19.14
2018-05-04T09:02:20.077Z,19.66
2018-05-04T09:08:25.263Z,20.27
2018-05-04T09:14:29.624Z,20.45
2018-05-04T09:20:33.986Z,20.72
2018-05-04T09:26:38.360Z,20.99
2018-05-04T09:32:42.733Z,20.86
2018-05-04T09:38:47.102Z,21.07
2018-05-04T09:44:51.472Z,21.39
2018-05-04T09:50:55.960Z,21.44
2018-05-04T09:57:00.328Z,21.94
2018-05-04T10:03:05.561Z,22.75
2018-05-04T10:09:10.014Z,22.51
2018-05-04T10:15:14.376Z,22.97
2018-05-04T10:21:19.123Z,23.58
2018-05-04T10:27:23.906Z,23.31
2018-05-04T10:33:28.334Z,22.78
2018-05-04T10:39:32.723Z,23.81
2018-05-04T10:45:37.172Z,24.74
2018-05-04T10:51:41.566Z,26.13
2018-05-04T10:57:45.946Z,27.38
2018-05-04T11:03:50.951Z,28.03
2018-05-04T11:09:55.393Z,28.18
2018-05-04T11:15:59.863Z,27.83
2018-05-04T11:22:04.294Z,27.04
2018-05-04T11:28:08.684Z,27.50
2018-05-04T11:34:13.036Z,27.44
2018-05-04T11:40:17.534Z,28.59
2018-05-04T11:46:22.968Z,28.81
2018-05-04T11:52:27.350Z,28.60
2018-05-04T11:58:31.719Z,28.70
2018-05-04T12:04:36.111Z,29.14
2018-05-04T12:10:40.642Z,28.86
2018-05-04T12:16:45.179Z,29.30
2018-05-04T12:22:49.864Z,28.01
2018-05-04T12:28:54.275Z,29.36
2018-05-04T12:34:58.630Z,30.80
2018-05-04T12:41:03.070Z,31.74
2018-05-04T12:47:07.487Z,31.62
2018-05-04T12:53:11.817Z,33.72
2018-05-04T12:59:16.190Z,32.83
2018-05-04T13:05:20.835Z,33.16
2018-05-04T13:11:25.299Z,32.44
2018-05-04T13:17:29.756Z,32.16
2018-05-04T13:23:34.842Z,32.30
2018-05-04T13:29:39.216Z,30.72
2018-05-04T13:35:43.572Z,31.11
2018-05-04T13:41:47.938Z,30.49
2018-05-04T13:47:52.367Z,29.73
2018-05-04T13:53:56.827Z,30.49
2018-05-04T14:00:01.260Z,29.73
2018-05-04T14:06:05.620Z,29.45
2018-05-04T14:12:11.079Z,30.02
2018-05-04T14:18:15.438Z,29.91
2018-05-04T14:24:20.072Z,30.32
2018-05-04T14:30:25.223Z,30.35
2018-05-04T14:36:29.577Z,31.05
2018-05-04T14:42:33.938Z,30.52
2018-05-04T14:48:38.407Z,29.48
2018-05-04T14:54:43.539Z,31.37
2018-05-04T15:00:47.891Z,31.09
2018-05-04T15:06:52.412Z,31.00
2018-05-04T15:12:56.897Z,31.01
2018-05-04T15:19:01.262Z,31.46
2018-05-04T15:25:05.720Z,31.41
2018-05-04T15:31:10.009Z,32.07
2018-05-04T15:37:15.356Z,30.99
2018-05-04T15:43:19.796Z,30.05
2018-05-04T15:49:24.267Z,31.19
2018-05-04T15:55:28.665Z,30.15
2018-05-04T16:01:33.795Z,30.48
2018-05-04T16:07:38.151Z,31.20
2018-05-04T16:13:42.604Z,31.13
2018-05-04T16:19:46.895Z,30.78
2018-05-04T16:25:51.291Z,29.80
2018-05-04T16:31:55.718Z,30.32
2018-05-04T16:38:00.093Z,31.15
2018-05-04T16:44:04.474Z,29.38
2018-05-04T16:50:09.593Z,29.10
2018-05-04T16:56:13.975Z,28.90
2018-05-04T17:02:18.352Z,29.23
2018-05-04T17:08:23.300Z,28.59
2018-05-04T17:14:27.677Z,28.67
2018-05-04T17:20:32.067Z,26.44
2018-05-04T17:26:37.197Z,26.80
2018-05-04T17:32:41.599Z,25.84
2018-05-04T17:38:46.004Z,26.05
2018-05-04T17:44:51.710Z,25.64
2018-05-04T17:50:56.940Z,25.50
2018-05-04T17:57:01.287Z,25.21
2018-05-04T18:03:06.430Z,24.79
2018-05-04T18:09:10.795Z,24.46
2018-05-04T18:15:15.272Z,23.89
2018-05-04T18:21:19.841Z,23.12
2018-05-04T18:27:24.260Z,22.59
2018-05-04T18:33:28.835Z,20.93
2018-05-04T18:39:33.228Z,19.37
2018-05-04T18:45:37.648Z,18.40
2018-05-04T18:51:42.010Z,17.05
2018-05-04T18:57:46.467Z,16.32
2018-05-04T19:03:51.641Z,15.87
2018-05-04T19:09:56.004Z,15.93
2018-05-04T19:16:01.881Z,15.59
2018-05-04T19:22:06.248Z,15.54
2018-05-04T19:28:10.776Z,15.24
2018-05-04T19:34:15.151Z,14.73
2018-05-04T19:40:19.682Z,14.68
2018-05-04T19:46:24.238Z,14.31
2018-05-04T19:52:29.023Z,14.29
2018-05-04T19:58:33.544Z,14.09
2018-05-04T20:04:37.938Z,13.86
2018-05-04T20:10:42.363Z,13.83
2018-05-04T20:16:46.762Z,13.59
2018-05-04T20:22:51.469Z,13.33
2018-05-04T20:28:56.073Z,13.14
2018-05-04T20:35:00.408Z,13.06
2018-05-04T20:41:04.800Z,12.93
2018-05-04T20:47:09.152Z,12.89
2018-05-04T20:53:13.509Z,12.81
2018-05-04T20:59:17.889Z,12.72
2018-05-04T21:05:22.393Z,12.68
2018-05-04T21:11:26.780Z,12.31
2018-05-04T21:17:31.211Z,12.04
2018-05-04T21:23:35.685Z,11.96
2018-05-04T21:29:40.045Z,11.56
2018-05-04T21:35:44.416Z,11.38
2018-05-04T21:41:48.789Z,11.19
2018-05-04T21:47:53.467Z,11.08
2018-05-04T21:53:57.852Z,10.94
2018-05-04T22:00:02.231Z,10.78
2018-05-04T22:06:06.621Z,10.61
2018-05-04T22:12:10.987Z,10.71
2018-05-04T22:18:15.355Z,10.68
2018-05-04T22:24:20.000Z,10.68
2018-05-04T22:30:24.636Z,10.50
2018-05-04T22:36:28.981Z,10.46
2018-05-04T22:42:34.111Z,10.61
2018-05-04T22:48:38.479Z,10.95
2018-05-04T22:54:42.935Z,11.06
2018-05-04T23:00:47.317Z,11.18
2018-05-04T23:06:52.495Z,11.28
2018-05-04T23:12:56.868Z,11.34
2018-05-04T23:19:02.135Z,11.42
2018-05-04T23:25:06.549Z,11.58
2018-05-04T23:31:10.984Z,11.64
2018-05-04T23:37:16.135Z,11.38
2018-05-04T23:43:21.330Z,11.42
2018-05-04T23:49:25.710Z,11.03
2018-05-04T23:55:30.085Z,11.17
